Time;durP1;ratioP1;P1;durP2;ratioP2;P2;SDS_P1;SDS_P2;PMS_P1;PMS_P2;Temp;Humidity;BMP_temperature;BMP_pressure;BME280_temperature;BME280_humidity;BME280_pressure;Samples;Min_cycle;Max_cycle;Signal;HPM_P1;HPM_P2
2023/01/02 00:00:55;;;;;;;;;;;18.90;54.60;;;;;;5078655;28;19920;-55
2023/01/02 00:03:20;;;;;;;;;;;18.80;54.50;;;;;;5108668;28;20364;-53
2023/01/02 00:05:45;;;;;;;;;;;18.80;54.50;;;;;;5075789;28;19917;-54
2023/01/02 00:08:11;;;;;;;;;;;18.80;54.60;;;;;;5075953;28;19915;-55
2023/01/02 00:10:36;;;;;;;;;;;18.80;54.60;;;;;;5086082;28;19919;-54
2023/01/02 00:13:02;;;;;;;;;;;18.80;54.60;;;;;;5086538;28;19921;-53
2023/01/02 00:15:27;;;;;;;;;;;18.70;54.50;;;;;;5075559;28;19913;-53
2023/01/02 00:17:53;;;;;;;;;;;18.70;54.60;;;;;;5075788;28;19962;-53
2023/01/02 00:20:18;;;;;;;;;;;18.70;54.70;;;;;;5073297;28;19912;-52
2023/01/02 00:22:43;;;;;;;;;;;18.70;54.70;;;;;;5074924;28;19921;-53
2023/01/02 00:25:09;;;;;;;;;;;18.70;54.70;;;;;;5075626;28;19912;-53
2023/01/02 00:27:34;;;;;;;;;;;18.70;54.80;;;;;;5089319;28;19921;-53
2023/01/02 00:30:00;;;;;;;;;;;18.70;54.80;;;;;;5073174;28;19967;-53
2023/01/02 00:32:25;;;;;;;;;;;18.70;54.80;;;;;;5067095;28;20016;-55
2023/01/02 00:34:50;;;;;;;;;;;18.60;54.80;;;;;;5055868;28;19962;-54
2023/01/02 00:37:16;;;;;;;;;;;18.60;54.80;;;;;;5073981;28;19917;-52
2023/01/02 00:39:41;;;;;;;;;;;18.60;54.90;;;;;;5071277;28;19967;-52
2023/01/02 00:42:07;;;;;;;;;;;18.60;54.90;;;;;;5074219;28;19912;-53
2023/01/02 00:44:32;;;;;;;;;;;18.60;54.90;;;;;;5074981;28;19913;-53
2023/01/02 00:46:58;;;;;;;;;;;18.60;54.90;;;;;;5090614;28;19969;-53
2023/01/02 00:49:23;;;;;;;;;;;18.60;55.00;;;;;;5090093;28;19966;-53
2023/01/02 00:51:48;;;;;;;;;;;18.60;55.00;;;;;;5075287;28;19918;-53
2023/01/02 00:54:14;;;;;;;;;;;18.50;55.00;;;;;;5073614;28;20007;-53
2023/01/02 00:56:39;;;;;;;;;;;18.50;55.10;;;;;;5075275;28;19913;-53
2023/01/02 00:59:05;;;;;;;;;;;18.50;55.10;;;;;;5074859;28;19916;-53
2023/01/02 01:01:30;;;;;;;;;;;18.50;55.10;;;;;;5075748;28;19909;-52
2023/01/02 01:03:55;;;;;;;;;;;18.50;55.10;;;;;;5074590;28;20105;-53
2023/01/02 01:06:21;;;;;;;;;;;18.50;55.10;;;;;;5073842;28;19959;-53
2023/01/02 01:08:46;;;;;;;;;;;18.40;55.10;;;;;;5075128;28;19912;-53
2023/01/02 01:11:12;;;;;;;;;;;18.40;55.10;;;;;;5074476;28;19916;-53
2023/01/02 01:13:38;;;;;;;;;;;18.40;55.10;;;;;;5074658;28;19908;-53
2023/01/02 01:16:04;;;;;;;;;;;18.40;55.20;;;;;;5074482;28;20006;-53
2023/01/02 01:18:29;;;;;;;;;;;18.40;55.30;;;;;;5075292;28;19916;-53
2023/01/02 01:20:55;;;;;;;;;;;18.40;55.30;;;;;;5073245;28;19966;-53
2023/01/02 01:23:22;;;;;;;;;;;18.40;55.30;;;;;;5073060;28;19912;-54
2023/01/02 01:25:47;;;;;;;;;;;18.40;55.30;;;;;;5094717;28;19919;-53
2023/01/02 01:28:13;;;;;;;;;;;18.40;55.40;;;;;;5078096;28;19912;-54
2023/01/02 01:30:38;;;;;;;;;;;18.30;55.30;;;;;;5073781;28;19947;-52
2023/01/02 01:33:04;;;;;;;;;;;18.30;55.30;;;;;;5074305;28;19970;-53
2023/01/02 01:35:29;;;;;;;;;;;18.30;55.30;;;;;;5074682;28;19916;-53
2023/01/02 01:37:54;;;;;;;;;;;18.30;55.40;;;;;;5066610;28;19999;-53
2023/01/02 01:40:20;;;;;;;;;;;18.30;55.40;;;;;;5054082;28;19908;-53
2023/01/02 01:42:45;;;;;;;;;;;18.30;55.40;;;;;;5064191;28;19919;-53
2023/01/02 01:45:11;;;;;;;;;;;18.30;55.50;;;;;;5075785;28;19916;-53
2023/01/02 01:47:38;;;;;;;;;;;18.20;55.50;;;;;;5084004;28;19956;-52
2023/01/02 01:50:06;;;;;;;;;;;18.30;55.60;;;;;;5074072;28;19912;-53
2023/01/02 01:52:32;;;;;;;;;;;18.20;55.50;;;;;;5062564;28;20124;-54
2023/01/02 01:55:00;;;;;;;;;;;18.20;55.60;;;;;;5069251;28;19909;-53
2023/01/02 01:57:32;;;;;;;;;;;18.20;55.70;;;;;;5074613;28;19966;-53
2023/01/02 01:59:57;;;;;;;;;;;18.20;55.70;;;;;;5075590;28;19912;-53
2023/01/02 02:02:23;;;;;;;;;;;18.20;55.70;;;;;;5076225;28;19966;-52
2023/01/02 02:04:48;;;;;;;;;;;18.20;55.80;;;;;;5073551;28;19919;-55
2023/01/02 02:07:14;;;;;;;;;;;18.10;55.70;;;;;;5073726;28;20012;-52
2023/01/02 02:09:46;;;;;;;;;;;18.10;55.80;;;;;;5105376;28;19948;-52
2023/01/02 02:12:12;;;;;;;;;;;18.10;55.90;;;;;;5071894;28;19912;-53
2023/01/02 02:14:37;;;;;;;;;;;18.10;55.90;;;;;;5073757;28;20379;-53
2023/01/02 02:17:15;;;;;;;;;;;18.10;55.80;;;;;;5083322;28;19912;-53
2023/01/02 02:20:00;;;;;;;;;;;18.20;55.60;;;;;;5063261;28;20725;-52
2023/01/02 02:22:28;;;;;;;;;;;18.30;55.60;;;;;;5066330;28;20030;-52
2023/01/02 02:24:53;;;;;;;;;;;18.40;55.50;;;;;;5072592;28;19939;-53
2023/01/02 02:27:31;;;;;;;;;;;18.60;55.00;;;;;;5073018;28;19916;-53
2023/01/02 02:29:59;;;;;;;;;;;18.80;55.30;;;;;;5073174;28;19916;-53
2023/01/02 02:32:29;;;;;;;;;;;19.00;54.20;;;;;;5074067;28;19951;-53
2023/01/02 02:35:06;;;;;;;;;;;19.10;53.90;;;;;;5104773;28;19963;-53
2023/01/02 02:37:45;;;;;;;;;;;19.20;53.60;;;;;;5102876;28;19919;-54
2023/01/02 02:40:10;;;;;;;;;;;19.30;53.40;;;;;;5067991;28;20011;-54
2023/01/02 02:42:54;;;;;;;;;;;19.30;53.30;;;;;;5072910;28;19919;-54
2023/01/02 02:45:32;;;;;;;;;;;19.30;53.30;;;;;;5072817;28;19909;-52
2023/01/02 02:48:00;;;;;;;;;;;19.30;53.30;;;;;;5089907;28;19937;-54
2023/01/02 02:50:36;;;;;;;;;;;19.30;53.50;;;;;;5053013;28;19908;-53
2023/01/02 02:53:17;;;;;;;;;;;19.20;53.60;;;;;;5100113;28;20407;-52
2023/01/02 02:55:43;;;;;;;;;;;19.10;53.60;;;;;;5070963;28;20388;-52
2023/01/02 02:58:12;;;;;;;;;;;19.10;53.80;;;;;;5071772;28;19938;-53
2023/01/02 03:00:37;;;;;;;;;;;19.00;53.80;;;;;;5104857;28;20388;-53
2023/01/02 03:03:12;;;;;;;;;;;18.90;54.00;;;;;;5074063;28;19912;-53
2023/01/02 03:05:38;;;;;;;;;;;18.90;54.10;;;;;;5072308;28;19913;-53
2023/01/02 03:08:11;;;;;;;;;;;18.80;54.00;;;;;;5104991;28;19916;-53
2023/01/02 03:10:43;;;;;;;;;;;18.80;54.00;;;;;;5070305;28;19913;-53
2023/01/02 03:13:12;;;;;;;;;;;18.70;54.10;;;;;;5072388;28;19962;-53
2023/01/02 03:15:39;;;;;;;;;;;18.70;54.20;;;;;;5072200;28;19920;-53
2023/01/02 03:18:09;;;;;;;;;;;18.70;54.30;;;;;;5087233;28;19919;-53
2023/01/02 03:20:36;;;;;;;;;;;18.70;54.40;;;;;;5074598;28;19912;-53
2023/01/02 03:23:03;;;;;;;;;;;18.60;54.50;;;;;;5072882;28;19986;-53
2023/01/02 03:25:28;;;;;;;;;;;18.60;54.60;;;;;;5070689;28;19917;-53
2023/01/02 03:27:55;;;;;;;;;;;18.60;54.60;;;;;;5072329;28;20307;-53
2023/01/02 03:30:20;;;;;;;;;;;18.60;54.70;;;;;;5104927;28;19920;-54
2023/01/02 03:33:06;;;;;;;;;;;18.50;54.90;;;;;;5072439;28;19916;-54
2023/01/02 03:35:32;;;;;;;;;;;18.40;54.90;;;;;;5065482;28;20013;-53
2023/01/02 03:37:58;;;;;;;;;;;18.40;55.10;;;;;;5075468;28;19909;-53
2023/01/02 03:40:27;;;;;;;;;;;18.30;55.10;;;;;;5076177;28;20003;-53
2023/01/02 03:42:59;;;;;;;;;;;18.30;55.10;;;;;;5076028;28;20013;-53
2023/01/02 03:45:27;;;;;;;;;;;18.30;55.10;;;;;;5107718;28;19920;-54
2023/01/02 03:47:58;;;;;;;;;;;18.40;55.10;;;;;;5065918;28;19917;-53
2023/01/02 03:50:25;;;;;;;;;;;18.30;55.10;;;;;;5077004;28;19917;-53
2023/01/02 03:52:50;;;;;;;;;;;18.30;55.30;;;;;;5105141;28;19919;-53
2023/01/02 03:55:16;;;;;;;;;;;18.30;55.30;;;;;;5076102;28;19908;-53
2023/01/02 03:57:45;;;;;;;;;;;18.30;55.40;;;;;;5101745;28;19920;-53
2023/01/02 04:00:11;;;;;;;;;;;18.20;55.40;;;;;;5072789;28;20012;-53
2023/01/02 04:02:44;;;;;;;;;;;18.20;55.40;;;;;;5076512;28;19935;-53
2023/01/02 04:05:13;;;;;;;;;;;18.20;55.40;;;;;;5076260;28;19908;-53
2023/01/02 04:07:59;;;;;;;;;;;18.20;55.30;;;;;;5075345;28;19930;-53
2023/01/02 04:10:24;;;;;;;;;;;18.20;55.30;;;;;;5073490;28;19917;-53
2023/01/02 04:12:51;;;;;;;;;;;18.20;55.30;;;;;;5108273;28;19912;-53
2023/01/02 04:15:17;;;;;;;;;;;18.30;55.30;;;;;;5074802;28;19908;-53
2023/01/02 04:17:53;;;;;;;;;;;18.30;55.20;;;;;;5073952;28;19962;-53
2023/01/02 04:20:29;;;;;;;;;;;18.30;55.30;;;;;;5094350;28;19917;-53
2023/01/02 04:22:59;;;;;;;;;;;18.30;55.30;;;;;;5074811;28;19990;-53
2023/01/02 04:25:26;;;;;;;;;;;18.30;55.10;;;;;;5057645;28;19913;-53
2023/01/02 04:27:53;;;;;;;;;;;18.30;55.00;;;;;;5106468;28;19912;-53
2023/01/02 04:30:19;;;;;;;;;;;18.30;55.10;;;;;;5073849;28;19959;-54
2023/01/02 04:32:45;;;;;;;;;;;18.30;55.00;;;;;;5075370;28;19920;-53
2023/01/02 04:35:13;;;;;;;;;;;18.30;55.00;;;;;;5106978;28;19917;-53
2023/01/02 04:37:39;;;;;;;;;;;18.30;55.10;;;;;;5073923;28;19932;-54
2023/01/02 04:40:07;;;;;;;;;;;18.30;55.10;;;;;;5068610;28;19935;-53
2023/01/02 04:42:32;;;;;;;;;;;18.30;55.10;;;;;;5075850;28;20436;-53
2023/01/02 04:44:58;;;;;;;;;;;18.30;55.20;;;;;;5073762;28;20065;-53
2023/01/02 04:47:23;;;;;;;;;;;18.30;55.30;;;;;;5075504;28;20042;-54
2023/01/02 04:49:48;;;;;;;;;;;18.30;55.30;;;;;;5070953;28;20002;-53
2023/01/02 04:52:14;;;;;;;;;;;18.30;55.30;;;;;;5075451;28;19959;-53
2023/01/02 04:54:39;;;;;;;;;;;18.20;55.30;;;;;;5081491;28;19920;-53
2023/01/02 04:57:05;;;;;;;;;;;18.20;55.30;;;;;;5078019;28;19912;-53
2023/01/02 04:59:30;;;;;;;;;;;18.20;55.30;;;;;;5074749;28;19908;-53
2023/01/02 05:01:56;;;;;;;;;;;18.20;55.40;;;;;;5074973;28;20276;-54
2023/01/02 05:04:21;;;;;;;;;;;18.20;55.50;;;;;;5074990;28;20378;-53
2023/01/02 05:06:47;;;;;;;;;;;18.20;55.40;;;;;;5071815;28;20431;-53
2023/01/02 05:09:14;;;;;;;;;;;18.20;55.40;;;;;;5070002;28;19916;-53
2023/01/02 05:11:40;;;;;;;;;;;18.20;55.40;;;;;;5074541;28;19912;-53
2023/01/02 05:14:05;;;;;;;;;;;18.20;55.30;;;;;;5074224;28;19920;-54
2023/01/02 05:16:31;;;;;;;;;;;18.20;55.20;;;;;;5074875;28;20011;-53
2023/01/02 05:18:56;;;;;;;;;;;18.20;55.20;;;;;;5072911;28;20273;-53
2023/01/02 05:24:06;;;;;;;;;;;18.30;55.30;;;;;;5082506;28;19919;-53
2023/01/02 05:26:31;;;;;;;;;;;18.20;55.30;;;;;;5074008;28;19912;-53
2023/01/02 05:28:57;;;;;;;;;;;18.20;55.30;;;;;;5073830;28;19958;-54
2023/01/02 05:31:22;;;;;;;;;;;18.20;55.80;;;;;;5073833;28;19955;-53
2023/01/02 05:33:51;;;;;;;;;;;18.20;55.30;;;;;;5073123;28;19916;-53
2023/01/02 05:36:16;;;;;;;;;;;18.20;55.30;;;;;;5087666;28;19935;-53
2023/01/02 05:38:42;;;;;;;;;;;18.20;55.30;;;;;;5079859;28;19916;-53
2023/01/02 05:41:07;;;;;;;;;;;18.20;55.30;;;;;;5074226;28;19916;-53
2023/01/02 05:43:33;;;;;;;;;;;18.20;55.40;;;;;;5072922;28;20287;-53
2023/01/02 05:46:28;;;;;;;;;;;18.20;55.40;;;;;;5074490;28;19920;-53
2023/01/02 05:48:53;;;;;;;;;;;18.20;55.40;;;;;;5072370;28;20014;-53
2023/01/02 05:51:19;;;;;;;;;;;18.20;55.40;;;;;;5078414;28;19951;-53
2023/01/02 05:53:44;;;;;;;;;;;18.10;55.40;;;;;;5074264;28;19923;-53
2023/01/02 05:56:13;;;;;;;;;;;18.10;55.40;;;;;;5072961;28;20337;-53
2023/01/02 05:58:39;;;;;;;;;;;18.10;55.40;;;;;;5073343;28;19924;-53
2023/01/02 06:01:06;;;;;;;;;;;18.20;55.60;;;;;;5073629;28;19913;-54
2023/01/02 06:03:31;;;;;;;;;;;18.10;55.50;;;;;;5073437;28;19912;-53
2023/01/02 06:06:00;;;;;;;;;;;18.10;55.60;;;;;;5081140;28;19923;-54
2023/01/02 06:08:26;;;;;;;;;;;18.10;55.60;;;;;;5083157;28;20044;-52
2023/01/02 06:10:51;;;;;;;;;;;18.10;55.50;;;;;;5073397;28;19948;-52
2023/01/02 06:13:16;;;;;;;;;;;18.10;55.50;;;;;;5069634;28;19962;-55
2023/01/02 06:15:42;;;;;;;;;;;18.10;55.50;;;;;;5073650;28;19978;-54
2023/01/02 06:18:07;;;;;;;;;;;18.20;55.50;;;;;;5073340;28;20274;-53
2023/01/02 06:20:33;;;;;;;;;;;18.10;55.40;;;;;;5057479;28;20380;-52
2023/01/02 06:22:58;;;;;;;;;;;18.20;55.60;;;;;;5073973;28;19924;-53
2023/01/02 06:25:23;;;;;;;;;;;18.20;55.60;;;;;;5075936;28;20007;-53
2023/01/02 06:27:49;;;;;;;;;;;18.10;55.60;;;;;;5075539;28;20005;-53
2023/01/02 06:30:14;;;;;;;;;;;18.10;55.60;;;;;;5073536;28;19909;-53
2023/01/02 06:32:40;;;;;;;;;;;18.10;55.60;;;;;;5073365;28;19912;-53
2023/01/02 06:35:05;;;;;;;;;;;18.10;55.60;;;;;;5073569;28;20415;-53
2023/01/02 06:37:31;;;;;;;;;;;18.10;55.80;;;;;;5077734;28;19919;-53
2023/01/02 06:39:56;;;;;;;;;;;18.10;55.80;;;;;;5072008;28;19961;-53
2023/01/02 06:42:22;;;;;;;;;;;18.10;55.90;;;;;;5072716;28;20121;-53
2023/01/02 06:44:47;;;;;;;;;;;18.00;56.00;;;;;;5072837;28;19979;-53
2023/01/02 06:47:12;;;;;;;;;;;18.00;56.00;;;;;;5072986;28;19932;-53
2023/01/02 06:49:38;;;;;;;;;;;18.00;56.00;;;;;;5072634;28;19916;-52
2023/01/02 06:52:03;;;;;;;;;;;18.00;56.10;;;;;;5076381;28;20389;-52
2023/01/02 06:54:29;;;;;;;;;;;18.00;56.00;;;;;;5072364;28;19970;-53
2023/01/02 06:56:54;;;;;;;;;;;18.00;56.00;;;;;;5072623;28;19919;-52
2023/01/02 06:59:20;;;;;;;;;;;18.00;56.00;;;;;;5071849;28;19958;-52
2023/01/02 07:01:45;;;;;;;;;;;18.00;56.00;;;;;;5071731;28;19912;-53
2023/01/02 07:04:14;;;;;;;;;;;18.00;56.00;;;;;;5072707;28;19916;-53
2023/01/02 07:06:40;;;;;;;;;;;18.00;56.00;;;;;;5072547;28;19916;-52
2023/01/02 07:09:05;;;;;;;;;;;18.00;56.00;;;;;;5068093;28;19920;-54
2023/01/02 07:11:31;;;;;;;;;;;18.00;56.00;;;;;;5077210;28;19912;-54
2023/01/02 07:13:56;;;;;;;;;;;18.00;55.90;;;;;;5087750;28;19912;-54
2023/01/02 07:16:22;;;;;;;;;;;18.00;56.00;;;;;;5069572;28;19912;-53
2023/01/02 07:18:47;;;;;;;;;;;18.10;56.00;;;;;;5052868;28;19915;-53
2023/01/02 07:21:13;;;;;;;;;;;18.00;55.90;;;;;;5071422;28;19932;-54
2023/01/02 07:23:38;;;;;;;;;;;18.00;56.10;;;;;;5072575;28;20376;-53
2023/01/02 07:26:04;;;;;;;;;;;18.10;55.90;;;;;;5071115;28;19920;-53
2023/01/02 07:28:29;;;;;;;;;;;18.00;55.80;;;;;;5070461;28;20315;-54
2023/01/02 07:30:58;;;;;;;;;;;18.10;55.90;;;;;;5073004;28;19912;-54
2023/01/02 07:33:24;;;;;;;;;;;18.10;55.90;;;;;;5072223;28;19924;-53
2023/01/02 07:35:49;;;;;;;;;;;18.10;55.80;;;;;;5072063;28;20525;-53
2023/01/02 07:38:15;;;;;;;;;;;18.10;55.80;;;;;;5072637;28;19909;-53
2023/01/02 07:40:40;;;;;;;;;;;18.10;55.90;;;;;;5070200;28;19916;-52
2023/01/02 07:43:06;;;;;;;;;;;18.10;56.00;;;;;;5072298;28;19928;-53
2023/01/02 07:45:32;;;;;;;;;;;18.10;56.10;;;;;;5071831;28;20056;-53
2023/01/02 07:47:58;;;;;;;;;;;18.00;56.00;;;;;;5072487;28;19912;-53
2023/01/02 07:50:23;;;;;;;;;;;18.00;56.10;;;;;;5071976;28;19961;-53
2023/01/02 07:52:49;;;;;;;;;;;18.00;56.10;;;;;;5072491;28;19908;-53
2023/01/02 07:55:14;;;;;;;;;;;18.00;56.10;;;;;;5085841;28;19979;-53
2023/01/02 07:57:40;;;;;;;;;;;18.00;56.20;;;;;;5062702;28;19920;-53
2023/01/02 08:00:05;;;;;;;;;;;18.00;56.20;;;;;;5071969;28;19919;-54
2023/01/02 08:02:31;;;;;;;;;;;18.00;56.40;;;;;;5068059;28;19973;-54
2023/01/02 08:04:56;;;;;;;;;;;18.00;56.30;;;;;;5071304;28;19912;-53
2023/01/02 08:07:22;;;;;;;;;;;18.00;56.10;;;;;;5072505;28;20378;-52
2023/01/02 08:09:47;;;;;;;;;;;18.00;56.30;;;;;;5081802;28;19978;-53
2023/01/02 08:12:13;;;;;;;;;;;18.00;56.30;;;;;;5070541;28;19978;-54
2023/01/02 08:14:38;;;;;;;;;;;18.00;56.40;;;;;;5071158;28;19917;-53
2023/01/02 08:17:03;;;;;;;;;;;18.00;56.30;;;;;;5071997;28;20436;-53
2023/01/02 08:19:29;;;;;;;;;;;18.00;56.40;;;;;;5070066;28;19916;-53
2023/01/02 08:21:54;;;;;;;;;;;17.90;56.40;;;;;;5056014;28;20015;-53
2023/01/02 08:24:20;;;;;;;;;;;17.90;56.30;;;;;;5062164;28;19950;-53
2023/01/02 08:26:45;;;;;;;;;;;17.90;56.60;;;;;;5075747;28;19959;-53
2023/01/02 08:29:11;;;;;;;;;;;17.90;56.50;;;;;;5075207;28;19916;-53
2023/01/02 08:31:36;;;;;;;;;;;17.90;56.50;;;;;;5075503;28;19916;-53
2023/01/02 08:34:02;;;;;;;;;;;17.90;56.60;;;;;;5078259;28;20057;-52
2023/01/02 08:36:27;;;;;;;;;;;18.00;56.60;;;;;;5074989;28;19915;-53
2023/01/02 08:38:53;;;;;;;;;;;17.90;56.60;;;;;;5075294;28;19951;-53
2023/01/02 08:41:34;;;;;;;;;;;17.90;56.40;;;;;;5074927;28;19974;-53
2023/01/02 08:43:59;;;;;;;;;;;17.90;56.60;;;;;;5075742;28;19962;-52
2023/01/02 08:46:25;;;;;;;;;;;18.00;56.40;;;;;;5074772;28;19929;-53
2023/01/02 08:48:50;;;;;;;;;;;18.00;56.40;;;;;;5075498;28;19908;-53
2023/01/02 08:51:16;;;;;;;;;;;18.00;56.50;;;;;;5074873;28;19912;-53
2023/01/02 08:53:41;;;;;;;;;;;18.00;56.50;;;;;;5074529;28;19919;-54
2023/01/02 08:56:22;;;;;;;;;;;18.00;56.60;;;;;;5075164;28;20365;-53
2023/01/02 08:58:49;;;;;;;;;;;18.00;56.40;;;;;;5073664;28;19916;-53
2023/01/02 09:01:14;;;;;;;;;;;18.00;56.50;;;;;;5073676;28;19917;-52
2023/01/02 09:03:39;;;;;;;;;;;18.00;56.40;;;;;;5088100;28;19920;-53
2023/01/02 09:06:05;;;;;;;;;;;18.00;56.60;;;;;;5074754;28;19916;-53
2023/01/02 09:08:30;;;;;;;;;;;18.00;56.60;;;;;;5075189;28;20020;-54
2023/01/02 09:10:56;;;;;;;;;;;18.00;56.70;;;;;;5074689;28;19919;-53
2023/01/02 09:13:21;;;;;;;;;;;18.00;56.80;;;;;;5073874;28;19913;-53
2023/01/02 09:15:47;;;;;;;;;;;18.00;56.70;;;;;;5073438;28;19919;-53
2023/01/02 09:18:12;;;;;;;;;;;18.00;56.70;;;;;;5074127;28;20145;-54
2023/01/02 09:20:40;;;;;;;;;;;18.00;56.60;;;;;;5070031;28;20340;-53
2023/01/02 09:23:06;;;;;;;;;;;18.00;56.70;;;;;;5074170;28;19917;-53
2023/01/02 09:25:31;;;;;;;;;;;18.00;56.70;;;;;;5073770;28;19913;-53
2023/01/02 09:27:57;;;;;;;;;;;18.00;56.90;;;;;;5074993;28;19913;-53
2023/01/02 09:30:22;;;;;;;;;;;17.90;56.70;;;;;;5074171;28;19985;-53
2023/01/02 09:32:49;;;;;;;;;;;18.00;56.90;;;;;;5073464;28;19912;-53
2023/01/02 09:35:15;;;;;;;;;;;18.00;56.80;;;;;;5074521;28;20318;-54
2023/01/02 09:37:40;;;;;;;;;;;18.00;56.80;;;;;;5074348;28;19974;-52
2023/01/02 09:40:06;;;;;;;;;;;18.00;56.80;;;;;;5072831;28;19913;-53
2023/01/02 09:42:31;;;;;;;;;;;18.00;56.70;;;;;;5073802;28;19913;-53
2023/01/02 09:44:57;;;;;;;;;;;17.90;56.80;;;;;;5071875;28;20395;-53
2023/01/02 09:47:24;;;;;;;;;;;18.00;56.90;;;;;;5105887;28;19917;-53
2023/01/02 09:49:51;;;;;;;;;;;17.90;56.80;;;;;;5073424;28;20355;-53
2023/01/02 09:52:17;;;;;;;;;;;17.90;56.80;;;;;;5074288;28;20272;-53
2023/01/02 09:54:43;;;;;;;;;;;17.90;56.80;;;;;;5073516;28;19946;-52
2023/01/02 09:57:11;;;;;;;;;;;17.90;56.70;;;;;;5073846;28;20015;-54
2023/01/02 09:59:40;;;;;;;;;;;18.00;56.90;;;;;;5073293;28;19915;-53
2023/01/02 10:02:05;;;;;;;;;;;17.90;56.80;;;;;;5099785;28;20372;-53
2023/01/02 10:04:34;;;;;;;;;;;17.90;56.90;;;;;;5074962;28;20043;-55
2023/01/02 10:07:03;;;;;;;;;;;17.90;57.00;;;;;;5072254;28;20393;-53
2023/01/02 10:09:31;;;;;;;;;;;17.90;56.90;;;;;;5070725;28;19920;-52
2023/01/02 10:12:03;;;;;;;;;;;17.90;57.00;;;;;;5072758;28;19913;-53
2023/01/02 10:14:36;;;;;;;;;;;17.90;57.00;;;;;;5068105;28;20284;-54
2023/01/02 10:17:02;;;;;;;;;;;17.90;57.00;;;;;;5054144;28;19909;-53
2023/01/02 10:19:30;;;;;;;;;;;17.90;57.00;;;;;;5072193;28;19931;-53
2023/01/02 10:21:57;;;;;;;;;;;17.90;57.00;;;;;;5062684;28;20006;-53
2023/01/02 10:24:24;;;;;;;;;;;17.90;57.10;;;;;;5075137;28;19927;-53
2023/01/02 10:26:51;;;;;;;;;;;17.90;57.20;;;;;;5071829;28;19923;-55
2023/01/02 10:29:19;;;;;;;;;;;17.90;57.20;;;;;;5072045;28;19999;-54
2023/01/02 10:31:55;;;;;;;;;;;17.90;57.20;;;;;;5071847;28;22358;-54
2023/01/02 10:34:22;;;;;;;;;;;17.90;57.30;;;;;;5072671;28;20375;-53
2023/01/02 10:36:48;;;;;;;;;;;17.80;57.30;;;;;;5067025;28;20268;-54
2023/01/02 10:39:17;;;;;;;;;;;18.10;57.00;;;;;;5060970;28;19927;-52
2023/01/02 10:41:46;;;;;;;;;;;18.90;55.50;;;;;;5074754;28;19935;-53
2023/01/02 10:44:19;;;;;;;;;;;19.90;53.20;;;;;;5066813;28;19916;-55
2023/01/02 10:46:44;;;;;;;;;;;20.90;51.20;;;;;;5066527;28;19917;-53
2023/01/02 10:49:10;;;;;;;;;;;21.60;49.60;;;;;;5072792;28;19912;-53
2023/01/02 10:51:35;;;;;;;;;;;21.90;48.90;;;;;;5069976;28;19924;-53
2023/01/02 10:54:05;;;;;;;;;;;22.00;48.70;;;;;;5072193;28;19916;-53
2023/01/02 10:56:31;;;;;;;;;;;22.10;48.40;;;;;;5074608;28;19939;-53
2023/01/02 10:58:56;;;;;;;;;;;22.40;48.10;;;;;;5070115;28;20006;-53
2023/01/02 11:01:22;;;;;;;;;;;22.70;47.90;;;;;;5071609;28;19913;-53
2023/01/02 11:03:48;;;;;;;;;;;22.90;47.50;;;;;;5069923;28;20292;-53
2023/01/02 11:06:32;;;;;;;;;;;23.10;47.00;;;;;;5069409;28;19989;-52
2023/01/02 11:09:02;;;;;;;;;;;23.40;47.00;;;;;;5071689;28;20376;-55
2023/01/02 11:11:28;;;;;;;;;;;23.50;46.50;;;;;;5071815;28;19916;-53
2023/01/02 11:13:54;;;;;;;;;;;23.70;46.50;;;;;;5067247;28;20517;-53
2023/01/02 11:16:21;;;;;;;;;;;23.80;46.50;;;;;;5066580;28;19920;-53
2023/01/02 11:18:53;;;;;;;;;;;23.90;46.40;;;;;;5062983;28;19919;-52
2023/01/02 11:21:23;;;;;;;;;;;24.00;46.30;;;;;;5065110;28;19920;-53
2023/01/02 11:23:48;;;;;;;;;;;24.00;46.10;;;;;;5069469;28;19924;-52
2023/01/02 11:26:20;;;;;;;;;;;24.10;46.10;;;;;;5081845;28;20273;-53
2023/01/02 11:28:45;;;;;;;;;;;24.20;46.10;;;;;;5066148;28;19912;-54
2023/01/02 11:31:12;;;;;;;;;;;24.20;46.10;;;;;;5059018;28;19916;-54
2023/01/02 11:33:37;;;;;;;;;;;24.20;46.00;;;;;;5064910;28;19922;-53
2023/01/02 11:36:03;;;;;;;;;;;24.30;46.00;;;;;;5102882;28;20011;-54
2023/01/02 11:38:41;;;;;;;;;;;24.30;46.00;;;;;;5066635;28;19921;-53
2023/01/02 11:41:19;;;;;;;;;;;24.30;45.80;;;;;;5066200;28;19912;-54
2023/01/02 11:43:48;;;;;;;;;;;24.30;45.80;;;;;;5060952;28;19916;-53
2023/01/02 11:46:18;;;;;;;;;;;24.20;46.10;;;;;;5065821;28;19931;-52
2023/01/02 11:48:44;;;;;;;;;;;24.10;46.30;;;;;;5069891;28;19928;-52
2023/01/02 11:51:13;;;;;;;;;;;24.10;46.40;;;;;;5071389;28;19913;-53
2023/01/02 11:53:39;;;;;;;;;;;24.10;46.30;;;;;;5070851;28;19913;-52
2023/01/02 11:56:09;;;;;;;;;;;24.20;46.20;;;;;;5066250;28;19927;-53
2023/01/02 11:58:49;;;;;;;;;;;24.20;46.20;;;;;;5066901;28;19917;-53
2023/01/02 12:01:19;;;;;;;;;;;24.30;46.30;;;;;;5063811;28;20409;-53
2023/01/02 12:03:45;;;;;;;;;;;24.20;46.20;;;;;;5060051;28;19912;-53
2023/01/02 12:06:13;;;;;;;;;;;24.10;46.40;;;;;;5073235;28;20291;-54
2023/01/02 12:08:45;;;;;;;;;;;24.10;46.60;;;;;;5074031;28;19916;-54
2023/01/02 12:11:17;;;;;;;;;;;24.10;46.50;;;;;;5075910;28;19916;-54
2023/01/02 12:13:42;;;;;;;;;;;24.10;46.50;;;;;;5075828;28;20000;-54
2023/01/02 12:16:11;;;;;;;;;;;23.90;46.80;;;;;;5075926;28;19963;-54
2023/01/02 12:18:55;;;;;;;;;;;23.80;47.20;;;;;;5073813;28;20007;-53
2023/01/02 12:21:24;;;;;;;;;;;23.60;47.40;;;;;;5056360;28;19927;-54
2023/01/02 12:23:50;;;;;;;;;;;23.60;47.40;;;;;;5056654;28;20288;-53
2023/01/02 12:26:21;;;;;;;;;;;23.70;47.50;;;;;;5055929;28;19913;-54
2023/01/02 12:29:12;;;;;;;;;;;23.80;47.20;;;;;;5069404;28;19934;-54
2023/01/02 12:31:38;;;;;;;;;;;23.90;46.90;;;;;;5048804;28;19988;-54
2023/01/02 12:34:10;;;;;;;;;;;24.10;46.70;;;;;;5055920;28;20006;-53
2023/01/02 12:36:38;;;;;;;;;;;24.10;46.40;;;;;;5061221;28;19919;-54
2023/01/02 12:39:23;;;;;;;;;;;24.20;46.20;;;;;;5075554;28;19920;-54
2023/01/02 12:41:51;;;;;;;;;;;24.30;46.20;;;;;;5074649;28;20280;-54
2023/01/02 12:44:25;;;;;;;;;;;24.30;46.00;;;;;;5066066;28;20019;-54
2023/01/02 12:47:09;;;;;;;;;;;24.40;45.90;;;;;;5075544;28;19912;-54
2023/01/02 12:49:46;;;;;;;;;;;24.40;45.90;;;;;;5074673;28;19920;-54
2023/01/02 12:52:17;;;;;;;;;;;24.50;46.50;;;;;;5067709;28;20292;-54
2023/01/02 12:54:59;;;;;;;;;;;24.50;45.80;;;;;;5074904;28;19917;-54
2023/01/02 12:57:29;;;;;;;;;;;24.50;45.80;;;;;;5071600;28;19920;-54
2023/01/02 13:00:16;;;;;;;;;;;24.40;45.80;;;;;;5074141;28;19913;-54
2023/01/02 13:03:14;;;;;;;;;;;24.50;45.90;;;;;;5074354;28;20007;-54
2023/01/02 13:05:42;;;;;;;;;;;24.50;45.80;;;;;;5059211;28;19967;-54
2023/01/02 13:08:27;;;;;;;;;;;24.50;45.90;;;;;;5065284;28;20271;-54
2023/01/02 13:10:53;;;;;;;;;;;24.40;45.90;;;;;;5085878;28;20407;-54
2023/01/02 13:13:18;;;;;;;;;;;24.40;45.80;;;;;;5072555;28;19963;-54
2023/01/02 13:15:47;;;;;;;;;;;24.40;46.00;;;;;;5061318;28;19974;-53
2023/01/02 13:18:16;;;;;;;;;;;24.30;46.10;;;;;;5056286;28;19921;-53
2023/01/02 13:20:50;;;;;;;;;;;24.20;46.20;;;;;;5068869;28;20027;-53
2023/01/02 13:23:34;;;;;;;;;;;24.20;47.00;;;;;;5071075;28;19934;-53
2023/01/02 13:26:09;;;;;;;;;;;24.20;46.40;;;;;;5071332;28;20281;-54
2023/01/02 13:28:41;;;;;;;;;;;24.30;46.30;;;;;;5073907;28;19912;-53
2023/01/02 13:31:09;;;;;;;;;;;24.30;46.30;;;;;;5063324;28;20011;-53
2023/01/02 13:33:41;;;;;;;;;;;24.30;46.10;;;;;;5071022;28;19999;-53
2023/01/02 13:36:18;;;;;;;;;;;24.40;46.10;;;;;;5065834;28;19921;-53
2023/01/02 13:38:43;;;;;;;;;;;24.50;46.10;;;;;;5070016;28;19917;-52
2023/01/02 13:41:11;;;;;;;;;;;24.50;46.00;;;;;;5065799;28;20418;-53
2023/01/02 13:43:36;;;;;;;;;;;24.60;45.80;;;;;;5067903;28;19912;-54
2023/01/02 13:46:02;;;;;;;;;;;24.60;45.90;;;;;;5065271;28;19916;-54
2023/01/02 13:48:30;;;;;;;;;;;24.60;45.80;;;;;;5066004;28;19913;-53
2023/01/02 13:50:59;;;;;;;;;;;24.60;45.90;;;;;;5060426;28;19974;-53
2023/01/02 13:53:30;;;;;;;;;;;24.50;45.80;;;;;;5069276;28;19920;-53
2023/01/02 13:55:59;;;;;;;;;;;24.50;45.80;;;;;;5070949;28;20427;-52
2023/01/02 13:58:44;;;;;;;;;;;24.60;45.90;;;;;;5068490;28;19912;-53
2023/01/02 14:01:24;;;;;;;;;;;24.60;45.70;;;;;;5067882;28;19966;-52
2023/01/02 14:04:08;;;;;;;;;;;24.60;45.90;;;;;;5069246;28;19912;-54
2023/01/02 14:06:37;;;;;;;;;;;24.50;45.80;;;;;;5070214;28;19925;-52
2023/01/02 14:09:02;;;;;;;;;;;24.50;46.00;;;;;;5065729;28;19913;-53
2023/01/02 14:11:29;;;;;;;;;;;24.50;45.80;;;;;;5065638;28;20009;-52
2023/01/02 14:13:54;;;;;;;;;;;24.60;45.80;;;;;;5060891;28;19999;-52
2023/01/02 14:16:26;;;;;;;;;;;24.50;45.70;;;;;;5058933;28;20004;-52
2023/01/02 14:19:04;;;;;;;;;;;24.60;45.70;;;;;;5063742;28;19937;-53
2023/01/02 14:21:37;;;;;;;;;;;24.60;45.70;;;;;;5069004;28;20373;-53
2023/01/02 14:24:02;;;;;;;;;;;24.60;45.70;;;;;;5070635;28;19908;-53